sensor_id;sensor_type;location;lat;lon;timestamp;pressure;altitude;pressure_sealevel;temperature;humidity
29909;BME280;36247;51.952;6.146;2023-04-02T00:01:37;100986.75;;;5.95;100.00
29909;BME280;36247;51.952;6.146;2023-04-02T00:04:21;100995.47;;;5.94;100.00
29909;BME280;36247;51.952;6.146;2023-04-02T00:09:56;100990.41;;;5.98;100.00
29909;BME280;36247;51.952;6.146;2023-04-02T00:12:59;101000.75;;;5.94;100.00
29909;BME280;36247;51.952;6.146;2023-04-02T00:15:27;101003.88;;;5.83;100.00
29909;BME280;36247;51.952;6.146;2023-04-02T00:17:59;101010.22;;;5.89;100.00
29909;BME280;36247;51.952;6.146;2023-04-02T00:20:27;101009.09;;;5.82;100.00
29909;BME280;36247;51.952;6.146;2023-04-02T00:23:13;101017.84;;;5.81;100.00
29909;BME280;36247;51.952;6.146;2023-04-02T00:25:42;101022.94;;;5.76;100.00
29909;BME280;36247;51.952;6.146;2023-04-02T00:28:16;101029.97;;;5.77;100.00
29909;BME280;36247;51.952;6.146;2023-04-02T00:30:53;101044.63;;;5.71;100.00
29909;BME280;36247;51.952;6.146;2023-04-02T00:33:29;101038.59;;;5.73;100.00
29909;BME280;36247;51.952;6.146;2023-04-02T00:40:38;101056.75;;;5.67;100.00
29909;BME280;36247;51.952;6.146;2023-04-02T00:43:10;101064.56;;;5.65;100.00
29909;BME280;36247;51.952;6.146;2023-04-02T00:45:55;101060.94;;;5.62;100.00
29909;BME280;36247;51.952;6.146;2023-04-02T00:48:44;101064.50;;;5.64;100.00
29909;BME280;36247;51.952;6.146;2023-04-02T00:52:06;101069.66;;;5.61;100.00
29909;BME280;36247;51.952;6.146;2023-04-02T00:55:07;101072.88;;;5.54;100.00
29909;BME280;36247;51.952;6.146;2023-04-02T00:57:40;101072.81;;;5.52;100.00
29909;BME280;36247;51.952;6.146;2023-04-02T01:03:26;101079.59;;;5.45;100.00
29909;BME280;36247;51.952;6.146;2023-04-02T01:15:05;101090.81;;;5.41;100.00
29909;BME280;36247;51.952;6.146;2023-04-02T01:29:04;101116.81;;;5.34;100.00
29909;BME280;36247;51.952;6.146;2023-04-02T01:44:00;101138.59;;;5.31;100.00
29909;BME280;36247;51.952;6.146;2023-04-02T01:51:31;101162.16;;;5.29;100.00
29909;BME280;36247;51.952;6.146;2023-04-02T01:54:04;101170.69;;;5.24;100.00
29909;BME280;36247;51.952;6.146;2023-04-02T01:56:31;101179.34;;;5.21;100.00
29909;BME280;36247;51.952;6.146;2023-04-02T01:59:20;101171.91;;;5.32;100.00
29909;BME280;36247;51.952;6.146;2023-04-02T02:05:11;101194.19;;;5.21;100.00
29909;BME280;36247;51.952;6.146;2023-04-02T02:07:46;101197.81;;;5.23;100.00
29909;BME280;36247;51.952;6.146;2023-04-02T02:10:23;101195.63;;;5.12;100.00
29909;BME280;36247;51.952;6.146;2023-04-02T02:13:05;101204.84;;;5.03;100.00
29909;BME280;36247;51.952;6.146;2023-04-02T02:15:32;101210.66;;;4.95;100.00
29909;BME280;36247;51.952;6.146;2023-04-02T02:18:18;101209.97;;;5.00;100.00
29909;BME280;36247;51.952;6.146;2023-04-02T02:29:41;101226.22;;;4.91;100.00
29909;BME280;36247;51.952;6.146;2023-04-02T02:32:14;101237.50;;;4.88;100.00
29909;BME280;36247;51.952;6.146;2023-04-02T02:35:07;101248.00;;;4.88;100.00
29909;BME280;36247;51.952;6.146;2023-04-02T02:56:09;101296.16;;;4.69;100.00
29909;BME280;36247;51.952;6.146;2023-04-02T02:58:47;101303.91;;;4.66;100.00
29909;BME280;36247;51.952;6.146;2023-04-02T03:02:18;101307.22;;;4.62;100.00
29909;BME280;36247;51.952;6.146;2023-04-02T03:05:14;101312.31;;;4.59;100.00
29909;BME280;36247;51.952;6.146;2023-04-02T03:08:02;101317.22;;;4.51;100.00
29909;BME280;36247;51.952;6.146;2023-04-02T03:13:33;101331.03;;;4.47;100.00
29909;BME280;36247;51.952;6.146;2023-04-02T03:19:05;101340.34;;;4.40;100.00
29909;BME280;36247;51.952;6.146;2023-04-02T03:24:48;101357.78;;;4.40;100.00
29909;BME280;36247;51.952;6.146;2023-04-02T03:27:41;101353.31;;;4.37;100.00
29909;BME280;36247;51.952;6.146;2023-04-02T03:36:29;101364.56;;;4.35;100.00
29909;BME280;36247;51.952;6.146;2023-04-02T03:42:54;101381.25;;;4.37;100.00
29909;BME280;36247;51.952;6.146;2023-04-02T03:55:10;101404.56;;;4.31;100.00
29909;BME280;36247;51.952;6.146;2023-04-02T04:01:26;101413.31;;;4.31;100.00
29909;BME280;36247;51.952;6.146;2023-04-02T04:04:16;101424.59;;;4.29;100.00
29909;BME280;36247;51.952;6.146;2023-04-02T04:07:34;101441.38;;;4.32;100.00
29909;BME280;36247;51.952;6.146;2023-04-02T04:13:02;101445.28;;;4.22;100.00
29909;BME280;36247;51.952;6.146;2023-04-02T04:18:16;101456.66;;;4.23;100.00
29909;BME280;36247;51.952;6.146;2023-04-02T04:24:38;101477.78;;;4.26;100.00
29909;BME280;36247;51.952;6.146;2023-04-02T04:30:59;101490.88;;;4.08;100.00
29909;BME280;36247;51.952;6.146;2023-04-02T04:33:48;101487.88;;;4.00;100.00
29909;BME280;36247;51.952;6.146;2023-04-02T04:36:27;101496.41;;;3.96;100.00
29909;BME280;36247;51.952;6.146;2023-04-02T04:39:13;101502.63;;;3.98;100.00
29909;BME280;36247;51.952;6.146;2023-04-02T04:41:46;101510.47;;;3.98;100.00
29909;BME280;36247;51.952;6.146;2023-04-02T04:44:24;101502.97;;;3.88;100.00
29909;BME280;36247;51.952;6.146;2023-04-02T04:47:46;101512.56;;;3.87;100.00
29909;BME280;36247;51.952;6.146;2023-04-02T04:50:06;101525.75;;;3.89;100.00
29909;BME280;36247;51.952;6.146;2023-04-02T04:52:39;101538.28;;;3.78;100.00
29909;BME280;36247;51.952;6.146;2023-04-02T04:55:28;101531.00;;;3.73;100.00
29909;BME280;36247;51.952;6.146;2023-04-02T05:12:33;101583.31;;;3.55;100.00
29909;BME280;36247;51.952;6.146;2023-04-02T06:33:41;101762.91;;;3.18;100.00
29909;BME280;36247;51.952;6.146;2023-04-02T06:36:27;101780.41;;;3.19;100.00
29909;BME280;36247;51.952;6.146;2023-04-02T06:48:03;101811.38;;;3.11;100.00
29909;BME280;36247;51.952;6.146;2023-04-02T06:50:44;101818.34;;;3.11;100.00
29909;BME280;36247;51.952;6.146;2023-04-02T06:53:32;101832.94;;;3.07;100.00
29909;BME280;36247;51.952;6.146;2023-04-02T06:56:19;101827.00;;;3.10;100.00
29909;BME280;36247;51.952;6.146;2023-04-02T06:59:01;101834.94;;;3.11;100.00
29909;BME280;36247;51.952;6.146;2023-04-02T07:01:46;101842.28;;;3.32;100.00
29909;BME280;36247;51.952;6.146;2023-04-02T07:04:37;101855.19;;;3.29;100.00
29909;BME280;36247;51.952;6.146;2023-04-02T07:07:17;101852.66;;;3.30;100.00
29909;BME280;36247;51.952;6.146;2023-04-02T07:09:48;101866.38;;;3.41;100.00
29909;BME280;36247;51.952;6.146;2023-04-02T07:12:23;101860.00;;;3.51;100.00
29909;BME280;36247;51.952;6.146;2023-04-02T07:14:58;101868.56;;;3.33;100.00
29909;BME280;36247;51.952;6.146;2023-04-02T07:17:40;101873.00;;;3.34;100.00
29909;BME280;36247;51.952;6.146;2023-04-02T07:20:39;101888.63;;;3.33;100.00
29909;BME280;36247;51.952;6.146;2023-04-02T07:23:16;101882.63;;;3.35;100.00
29909;BME280;36247;51.952;6.146;2023-04-02T07:25:54;101898.09;;;3.46;100.00
29909;BME280;36247;51.952;6.146;2023-04-02T07:28:31;101896.19;;;3.43;100.00
29909;BME280;36247;51.952;6.146;2023-04-02T07:31:25;101900.09;;;3.50;100.00
29909;BME280;36247;51.952;6.146;2023-04-02T07:39:53;101916.88;;;3.53;100.00
29909;BME280;36247;51.952;6.146;2023-04-02T07:42:56;101916.97;;;3.55;100.00
29909;BME280;36247;51.952;6.146;2023-04-02T07:49:35;101936.53;;;3.75;100.00
29909;BME280;36247;51.952;6.146;2023-04-02T07:52:10;101937.22;;;3.73;100.00
29909;BME280;36247;51.952;6.146;2023-04-02T07:58:00;101942.66;;;3.61;100.00
29909;BME280;36247;51.952;6.146;2023-04-02T08:00:36;101941.75;;;3.75;100.00
29909;BME280;36247;51.952;6.146;2023-04-02T08:06:56;101948.78;;;3.76;100.00
29909;BME280;36247;51.952;6.146;2023-04-02T08:25:49;101988.78;;;3.87;100.00
29909;BME280;36247;51.952;6.146;2023-04-02T08:28:39;101986.59;;;3.95;100.00
29909;BME280;36247;51.952;6.146;2023-04-02T08:31:11;102001.97;;;4.03;100.00
29909;BME280;36247;51.952;6.146;2023-04-02T08:33:49;101995.81;;;4.18;100.00
29909;BME280;36247;51.952;6.146;2023-04-02T08:39:53;101997.78;;;4.37;100.00
29909;BME280;36247;51.952;6.146;2023-04-02T08:46:19;102018.84;;;4.53;100.00
29909;BME280;36247;51.952;6.146;2023-04-02T08:56:11;102046.03;;;4.39;100.00
29909;BME280;36247;51.952;6.146;2023-04-02T08:58:53;102042.97;;;4.63;100.00
29909;BME280;36247;51.952;6.146;2023-04-02T09:02:28;102053.31;;;4.91;100.00
29909;BME280;36247;51.952;6.146;2023-04-02T09:05:28;102060.88;;;4.85;100.00
29909;BME280;36247;51.952;6.146;2023-04-02T09:37:26;102110.91;;;5.03;100.00
29909;BME280;36247;51.952;6.146;2023-04-02T10:30:58;102207.19;;;4.87;100.00
29909;BME280;36247;51.952;6.146;2023-04-02T10:34:01;102212.63;;;4.90;100.00
29909;BME280;36247;51.952;6.146;2023-04-02T10:36:48;102215.41;;;4.64;100.00
29909;BME280;36247;51.952;6.146;2023-04-02T10:39:27;102215.22;;;5.35;100.00
29909;BME280;36247;51.952;6.146;2023-04-02T10:42:09;102208.09;;;8.07;100.00
29909;BME280;36247;51.952;6.146;2023-04-02T10:47:44;102203.88;;;9.55;100.00
29909;BME280;36247;51.952;6.146;2023-04-02T10:50:41;102198.69;;;10.03;100.00
29909;BME280;36247;51.952;6.146;2023-04-02T11:06:34;102214.84;;;8.99;100.00
29909;BME280;36247;51.952;6.146;2023-04-02T11:09:20;102209.56;;;10.11;100.00
29909;BME280;36247;51.952;6.146;2023-04-02T11:11:59;102200.81;;;11.39;100.00
29909;BME280;36247;51.952;6.146;2023-04-02T11:14:51;102206.03;;;11.36;100.00
29909;BME280;36247;51.952;6.146;2023-04-02T11:17:45;102206.56;;;12.41;100.00
29909;BME280;36247;51.952;6.146;2023-04-02T11:24:21;102211.06;;;11.85;100.00
29909;BME280;36247;51.952;6.146;2023-04-02T11:41:10;102229.25;;;12.30;100.00
29909;BME280;36247;51.952;6.146;2023-04-02T11:44:04;102231.38;;;12.11;100.00
29909;BME280;36247;51.952;6.146;2023-04-02T11:46:38;102225.31;;;12.47;100.00
29909;BME280;36247;51.952;6.146;2023-04-02T11:49:34;102233.38;;;12.19;100.00
29909;BME280;36247;51.952;6.146;2023-04-02T11:52:17;102235.97;;;12.47;98.33
29909;BME280;36247;51.952;6.146;2023-04-02T11:54:59;102230.28;;;12.67;98.88
29909;BME280;36247;51.952;6.146;2023-04-02T11:57:54;102237.38;;;12.66;87.23
29909;BME280;36247;51.952;6.146;2023-04-02T12:09:30;102257.53;;;12.90;88.82
29909;BME280;36247;51.952;6.146;2023-04-02T12:12:25;102245.28;;;13.30;92.66
29909;BME280;36247;51.952;6.146;2023-04-02T12:14:58;102254.41;;;12.11;99.48
29909;BME280;36247;51.952;6.146;2023-04-02T12:22:52;102265.16;;;11.06;100.00
29909;BME280;36247;51.952;6.146;2023-04-02T12:29:40;102289.25;;;10.64;100.00
29909;BME280;36247;51.952;6.146;2023-04-02T12:34:51;102298.25;;;11.18;100.00
29909;BME280;36247;51.952;6.146;2023-04-02T12:37:29;102295.91;;;11.27;100.00
29909;BME280;36247;51.952;6.146;2023-04-02T12:40:12;102294.25;;;11.56;100.00
29909;BME280;36247;51.952;6.146;2023-04-02T12:42:42;102299.69;;;11.08;100.00
29909;BME280;36247;51.952;6.146;2023-04-02T12:45:26;102304.16;;;10.85;100.00
29909;BME280;36247;51.952;6.146;2023-04-02T12:48:04;102302.59;;;11.41;100.00
29909;BME280;36247;51.952;6.146;2023-04-02T12:50:33;102300.41;;;12.10;100.00
29909;BME280;36247;51.952;6.146;2023-04-02T12:53:23;102300.03;;;11.44;100.00
29909;BME280;36247;51.952;6.146;2023-04-02T12:55:51;102313.00;;;11.09;100.00
29909;BME280;36247;51.952;6.146;2023-04-02T12:58:39;102314.22;;;11.19;100.00
29909;BME280;36247;51.952;6.146;2023-04-02T13:03:39;102315.19;;;10.97;100.00
29909;BME280;36247;51.952;6.146;2023-04-02T13:06:38;102314.66;;;10.57;100.00
29909;BME280;36247;51.952;6.146;2023-04-02T13:09:25;102310.03;;;11.26;100.00
29909;BME280;36247;51.952;6.146;2023-04-02T13:11:53;102305.19;;;11.93;100.00
29909;BME280;36247;51.952;6.146;2023-04-02T13:14:23;102295.25;;;12.45;100.00
29909;BME280;36247;51.952;6.146;2023-04-02T13:16:50;102298.78;;;12.44;100.00
29909;BME280;36247;51.952;6.146;2023-04-02T13:21:42;102306.63;;;13.03;94.82
29909;BME280;36247;51.952;6.146;2023-04-02T13:24:33;102311.03;;;13.69;96.74
29909;BME280;36247;51.952;6.146;2023-04-02T13:27:01;102294.97;;;14.44;90.50
29909;BME280;36247;51.952;6.146;2023-04-02T13:29:32;102305.91;;;14.58;81.65
29909;BME280;36247;51.952;6.146;2023-04-02T13:32:01;102299.47;;;14.89;79.76
29909;BME280;36247;51.952;6.146;2023-04-02T13:34:31;102299.41;;;16.53;67.46
29909;BME280;36247;51.952;6.146;2023-04-02T13:37:00;102316.09;;;13.58;79.46
29909;BME280;36247;51.952;6.146;2023-04-02T13:39:29;102309.94;;;14.78;79.11
29909;BME280;36247;51.952;6.146;2023-04-02T13:42:01;102313.03;;;15.02;69.42
29909;BME280;36247;51.952;6.146;2023-04-02T13:44:30;102306.88;;;15.56;66.37
29909;BME280;36247;51.952;6.146;2023-04-02T13:47:05;102318.63;;;15.14;66.81
29909;BME280;36247;51.952;6.146;2023-04-02T13:49:34;102306.03;;;15.57;69.38
29909;BME280;36247;51.952;6.146;2023-04-02T13:52:12;102304.34;;;16.20;60.89
29909;BME280;36247;51.952;6.146;2023-04-02T13:57:11;102320.25;;;16.11;60.52
29909;BME280;36247;51.952;6.146;2023-04-02T13:59:38;102311.31;;;16.11;59.96
29909;BME280;36247;51.952;6.146;2023-04-02T14:02:23;102310.00;;;16.42;61.29
29909;BME280;36247;51.952;6.146;2023-04-02T14:07:51;102314.13;;;16.18;53.94
29909;BME280;36247;51.952;6.146;2023-04-02T14:11:12;102313.84;;;16.67;56.80
29909;BME280;36247;51.952;6.146;2023-04-02T14:20:02;102323.25;;;17.03;59.62
29909;BME280;36247;51.952;6.146;2023-04-02T14:22:44;102334.66;;;16.88;55.27
29909;BME280;36247;51.952;6.146;2023-04-02T14:25:56;102340.16;;;17.01;54.38
29909;BME280;36247;51.952;6.146;2023-04-02T14:29:06;102339.50;;;16.48;54.66
29909;BME280;36247;51.952;6.146;2023-04-02T14:31:33;102338.81;;;17.46;57.55
29909;BME280;36247;51.952;6.146;2023-04-02T14:39:02;102347.28;;;17.95;54.93
29909;BME280;36247;51.952;6.146;2023-04-02T14:41:41;102355.56;;;17.25;54.02
29909;BME280;36247;51.952;6.146;2023-04-02T14:44:22;102356.44;;;17.24;53.34
29909;BME280;36247;51.952;6.146;2023-04-02T14:46:55;102356.38;;;17.16;53.62
29909;BME280;36247;51.952;6.146;2023-04-02T14:49:36;102357.91;;;17.85;51.80
29909;BME280;36247;51.952;6.146;2023-04-02T14:52:09;102357.25;;;18.17;49.35
29909;BME280;36247;51.952;6.146;2023-04-02T14:55:09;102356.88;;;17.69;52.38
29909;BME280;36247;51.952;6.146;2023-04-02T14:57:40;102359.38;;;17.45;53.10
29909;BME280;36247;51.952;6.146;2023-04-02T15:00:38;102360.44;;;17.65;54.56
29909;BME280;36247;51.952;6.146;2023-04-02T15:03:21;102370.53;;;17.06;53.24
29909;BME280;36247;51.952;6.146;2023-04-02T15:06:01;102371.34;;;17.88;52.77
29909;BME280;36247;51.952;6.146;2023-04-02T15:08:32;102376.66;;;17.85;52.96
29909;BME280;36247;51.952;6.146;2023-04-02T15:11:06;102378.84;;;18.33;53.49
29909;BME280;36247;51.952;6.146;2023-04-02T15:13:42;102377.44;;;17.68;51.45
29909;BME280;36247;51.952;6.146;2023-04-02T15:16:16;102386.78;;;17.18;48.69
29909;BME280;36247;51.952;6.146;2023-04-02T15:18:45;102378.78;;;17.23;52.79
29909;BME280;36247;51.952;6.146;2023-04-02T15:24:08;102387.16;;;17.58;50.71
29909;BME280;36247;51.952;6.146;2023-04-02T15:37:49;102395.91;;;17.40;52.82
29909;BME280;36247;51.952;6.146;2023-04-02T15:41:06;102395.31;;;16.88;51.44
29909;BME280;36247;51.952;6.146;2023-04-02T15:43:40;102402.66;;;17.04;51.33
29909;BME280;36247;51.952;6.146;2023-04-02T16:11:36;102424.44;;;16.07;50.35
29909;BME280;36247;51.952;6.146;2023-04-02T16:14:27;102440.25;;;16.51;51.90
29909;BME280;36247;51.952;6.146;2023-04-02T16:17:02;102436.47;;;16.33;49.14
29909;BME280;36247;51.952;6.146;2023-04-02T16:22:39;102439.75;;;16.17;52.02
29909;BME280;36247;51.952;6.146;2023-04-02T16:25:15;102447.13;;;16.32;50.76
29909;BME280;36247;51.952;6.146;2023-04-02T16:27:48;102448.22;;;16.46;53.04
29909;BME280;36247;51.952;6.146;2023-04-02T16:35:46;102461.06;;;15.63;53.26
29909;BME280;36247;51.952;6.146;2023-04-02T16:41:20;102467.06;;;16.54;54.35
29909;BME280;36247;51.952;6.146;2023-04-02T16:49:08;102471.91;;;15.27;54.19
29909;BME280;36247;51.952;6.146;2023-04-02T16:51:44;102484.66;;;14.97;54.53
29909;BME280;36247;51.952;6.146;2023-04-02T16:54:34;102486.00;;;14.78;55.70
29909;BME280;36247;51.952;6.146;2023-04-02T17:03:15;102506.66;;;15.28;55.97
29909;BME280;36247;51.952;6.146;2023-04-02T17:09:02;102502.66;;;15.06;58.04
29909;BME280;36247;51.952;6.146;2023-04-02T17:11:42;102509.88;;;14.37;57.33
29909;BME280;36247;51.952;6.146;2023-04-02T17:14:34;102516.63;;;14.21;61.28
29909;BME280;36247;51.952;6.146;2023-04-02T17:17:07;102520.44;;;13.98;62.39
29909;BME280;36247;51.952;6.146;2023-04-02T17:19:38;102530.75;;;14.19;68.93
29909;BME280;36247;51.952;6.146;2023-04-02T17:22:05;102525.03;;;14.03;64.35
29909;BME280;36247;51.952;6.146;2023-04-02T17:24:41;102534.69;;;13.66;68.48
29909;BME280;36247;51.952;6.146;2023-04-02T17:30:00;102536.56;;;13.70;78.64
29909;BME280;36247;51.952;6.146;2023-04-02T17:32:31;102543.13;;;13.22;82.05
29909;BME280;36247;51.952;6.146;2023-04-02T17:40:53;102540.84;;;12.50;85.30
29909;BME280;36247;51.952;6.146;2023-04-02T17:47:10;102557.09;;;12.06;86.96
29909;BME280;36247;51.952;6.146;2023-04-02T17:53:10;102566.63;;;11.07;96.68
29909;BME280;36247;51.952;6.146;2023-04-02T18:15:51;102600.63;;;9.14;100.00
29909;BME280;36247;51.952;6.146;2023-04-02T18:27:36;102623.03;;;8.34;100.00
29909;BME280;36247;51.952;6.146;2023-04-02T18:30:12;102625.47;;;8.13;100.00
29909;BME280;36247;51.952;6.146;2023-04-02T18:33:16;102629.44;;;8.05;100.00
29909;BME280;36247;51.952;6.146;2023-04-02T18:36:03;102633.63;;;8.01;100.00
29909;BME280;36247;51.952;6.146;2023-04-02T18:38:44;102638.56;;;8.28;100.00
29909;BME280;36247;51.952;6.146;2023-04-02T18:44:20;102638.81;;;8.16;100.00
29909;BME280;36247;51.952;6.146;2023-04-02T18:47:13;102638.44;;;8.08;100.00
29909;BME280;36247;51.952;6.146;2023-04-02T18:50:27;102644.34;;;8.04;100.00
29909;BME280;36247;51.952;6.146;2023-04-02T18:53:13;102651.63;;;7.92;100.00
29909;BME280;36247;51.952;6.146;2023-04-02T18:56:03;102651.53;;;7.74;100.00
29909;BME280;36247;51.952;6.146;2023-04-02T18:59:20;102659.63;;;7.77;100.00
29909;BME280;36247;51.952;6.146;2023-04-02T19:15:19;102695.78;;;7.47;100.00
29909;BME280;36247;51.952;6.146;2023-04-02T19:18:01;102686.72;;;7.27;100.00
29909;BME280;36247;51.952;6.146;2023-04-02T19:20:43;102691.03;;;7.10;100.00
29909;BME280;36247;51.952;6.146;2023-04-02T19:23:46;102694.22;;;7.04;100.00
29909;BME280;36247;51.952;6.146;2023-04-02T19:26:20;102695.34;;;6.93;100.00
29909;BME280;36247;51.952;6.146;2023-04-02T19:34:58;102707.84;;;6.67;100.00
29909;BME280;36247;51.952;6.146;2023-04-02T19:37:38;102718.38;;;6.52;100.00
29909;BME280;36247;51.952;6.146;2023-04-02T19:42:45;102719.84;;;6.62;100.00
29909;BME280;36247;51.952;6.146;2023-04-02T19:47:58;102728.28;;;6.71;100.00
29909;BME280;36247;51.952;6.146;2023-04-02T19:50:27;102721.84;;;6.66;100.00
29909;BME280;36247;51.952;6.146;2023-04-02T19:52:53;102727.63;;;6.45;100.00
29909;BME280;36247;51.952;6.146;2023-04-02T19:55:19;102730.16;;;6.29;100.00
29909;BME280;36247;51.952;6.146;2023-04-02T19:57:45;102728.41;;;6.29;100.00
29909;BME280;36247;51.952;6.146;2023-04-02T20:00:13;102735.78;;;6.35;100.00
29909;BME280;36247;51.952;6.146;2023-04-02T20:02:46;102740.13;;;6.20;100.00
29909;BME280;36247;51.952;6.146;2023-04-02T20:05:12;102746.50;;;6.10;100.00
29909;BME280;36247;51.952;6.146;2023-04-02T20:07:38;102750.69;;;6.06;100.00
29909;BME280;36247;51.952;6.146;2023-04-02T20:10:06;102751.19;;;5.87;100.00
29909;BME280;36247;51.952;6.146;2023-04-02T20:12:39;102755.84;;;5.91;100.00
29909;BME280;36247;51.952;6.146;2023-04-02T20:15:11;102755.53;;;5.87;100.00
29909;BME280;36247;51.952;6.146;2023-04-02T20:17:37;102757.88;;;5.82;100.00
29909;BME280;36247;51.952;6.146;2023-04-02T20:20:04;102756.38;;;5.72;100.00
29909;BME280;36247;51.952;6.146;2023-04-02T20:22:30;102757.34;;;5.88;100.00
29909;BME280;36247;51.952;6.146;2023-04-02T20:25:03;102770.53;;;5.74;100.00
29909;BME280;36247;51.952;6.146;2023-04-02T20:27:32;102767.13;;;5.48;100.00
29909;BME280;36247;51.952;6.146;2023-04-02T20:30:03;102764.28;;;5.45;100.00
29909;BME280;36247;51.952;6.146;2023-04-02T20:32:31;102768.66;;;5.32;100.00
29909;BME280;36247;51.952;6.146;2023-04-02T20:34:57;102775.41;;;5.41;100.00
29909;BME280;36247;51.952;6.146;2023-04-02T20:37:23;102772.69;;;5.40;100.00
29909;BME280;36247;51.952;6.146;2023-04-02T20:39:53;102778.53;;;5.49;100.00
29909;BME280;36247;51.952;6.146;2023-04-02T20:42:23;102783.78;;;5.62;100.00
29909;BME280;36247;51.952;6.146;2023-04-02T20:44:53;102783.50;;;5.44;100.00
29909;BME280;36247;51.952;6.146;2023-04-02T20:47:19;102787.44;;;5.24;100.00
29909;BME280;36247;51.952;6.146;2023-04-02T20:49:45;102791.34;;;5.04;100.00
29909;BME280;36247;51.952;6.146;2023-04-02T20:52:42;102793.84;;;5.03;100.00
29909;BME280;36247;51.952;6.146;2023-04-02T20:55:25;102797.41;;;5.03;100.00
29909;BME280;36247;51.952;6.146;2023-04-02T20:58:06;102806.59;;;4.97;100.00
29909;BME280;36247;51.952;6.146;2023-04-02T21:03:33;102808.41;;;4.98;100.00
29909;BME280;36247;51.952;6.146;2023-04-02T21:06:27;102806.31;;;5.05;100.00
29909;BME280;36247;51.952;6.146;2023-04-02T21:09:04;102814.69;;;4.74;100.00
29909;BME280;36247;51.952;6.146;2023-04-02T21:12:07;102820.56;;;4.70;100.00
29909;BME280;36247;51.952;6.146;2023-04-02T21:14:43;102821.25;;;4.68;100.00
29909;BME280;36247;51.952;6.146;2023-04-02T21:17:19;102823.97;;;4.69;100.00
29909;BME280;36247;51.952;6.146;2023-04-02T21:20:18;102825.19;;;4.74;100.00
29909;BME280;36247;51.952;6.146;2023-04-02T21:26:04;102820.72;;;4.60;100.00
29909;BME280;36247;51.952;6.146;2023-04-02T21:28:40;102825.31;;;4.76;100.00
29909;BME280;36247;51.952;6.146;2023-04-02T21:31:10;102826.97;;;4.87;100.00
29909;BME280;36247;51.952;6.146;2023-04-02T21:33:42;102835.66;;;4.86;100.00
29909;BME280;36247;51.952;6.146;2023-04-02T21:36:10;102832.91;;;4.85;100.00
29909;BME280;36247;51.952;6.146;2023-04-02T21:38:55;102837.59;;;4.89;100.00
29909;BME280;36247;51.952;6.146;2023-04-02T21:43:52;102839.53;;;4.91;100.00
29909;BME280;36247;51.952;6.146;2023-04-02T21:46:24;102840.69;;;4.83;100.00
29909;BME280;36247;51.952;6.146;2023-04-02T21:48:56;102840.78;;;4.85;100.00
29909;BME280;36247;51.952;6.146;2023-04-02T21:51:25;102842.41;;;4.83;100.00
29909;BME280;36247;51.952;6.146;2023-04-02T21:53:57;102845.25;;;4.86;100.00
29909;BME280;36247;51.952;6.146;2023-04-02T21:56:31;102842.16;;;4.66;100.00
29909;BME280;36247;51.952;6.146;2023-04-02T21:59:03;102845.66;;;4.67;100.00
29909;BME280;36247;51.952;6.146;2023-04-02T22:01:31;102852.22;;;4.60;100.00
29909;BME280;36247;51.952;6.146;2023-04-02T22:04:02;102852.22;;;4.60;100.00
29909;BME280;36247;51.952;6.146;2023-04-02T22:06:31;102859.13;;;4.71;100.00
29909;BME280;36247;51.952;6.146;2023-04-02T22:09:04;102860.88;;;4.59;100.00
29909;BME280;36247;51.952;6.146;2023-04-02T22:11:40;102862.75;;;4.48;100.00
29909;BME280;36247;51.952;6.146;2023-04-02T22:14:11;102860.81;;;4.46;100.00
29909;BME280;36247;51.952;6.146;2023-04-02T22:16:38;102854.28;;;4.27;100.00
29909;BME280;36247;51.952;6.146;2023-04-02T22:19:10;102860.41;;;4.28;100.00
29909;BME280;36247;51.952;6.146;2023-04-02T22:21:37;102854.91;;;4.36;100.00
29909;BME280;36247;51.952;6.146;2023-04-02T22:24:06;102864.69;;;4.14;100.00
29909;BME280;36247;51.952;6.146;2023-04-02T22:26:36;102870.13;;;4.29;100.00
29909;BME280;36247;51.952;6.146;2023-04-02T22:29:04;102872.63;;;4.27;100.00
29909;BME280;36247;51.952;6.146;2023-04-02T22:31:36;102867.50;;;4.29;100.00
29909;BME280;36247;51.952;6.146;2023-04-02T22:34:06;102863.94;;;4.28;100.00
29909;BME280;36247;51.952;6.146;2023-04-02T22:36:35;102879.25;;;4.10;100.00
29909;BME280;36247;51.952;6.146;2023-04-02T22:39:02;102880.44;;;3.90;100.00
29909;BME280;36247;51.952;6.146;2023-04-02T22:41:31;102873.59;;;3.80;100.00
29909;BME280;36247;51.952;6.146;2023-04-02T22:44:01;102876.22;;;3.92;100.00
29909;BME280;36247;51.952;6.146;2023-04-02T22:46:30;102879.66;;;3.79;100.00
29909;BME280;36247;51.952;6.146;2023-04-02T22:48:57;102881.22;;;3.89;100.00
29909;BME280;36247;51.952;6.146;2023-04-02T22:51:25;102876.78;;;3.88;100.00
29909;BME280;36247;51.952;6.146;2023-04-02T22:53:53;102884.06;;;3.92;100.00
29909;BME280;36247;51.952;6.146;2023-04-02T22:56:25;102885.22;;;3.96;100.00
29909;BME280;36247;51.952;6.146;2023-04-02T22:58:58;102893.44;;;4.00;100.00
29909;BME280;36247;51.952;6.146;2023-04-02T23:01:32;102891.94;;;3.80;100.00
29909;BME280;36247;51.952;6.146;2023-04-02T23:03:59;102889.31;;;3.80;100.00
29909;BME280;36247;51.952;6.146;2023-04-02T23:06:30;102892.28;;;3.85;100.00
29909;BME280;36247;51.952;6.146;2023-04-02T23:08:59;102897.28;;;3.58;100.00
29909;BME280;36247;51.952;6.146;2023-04-02T23:11:30;102890.25;;;3.57;100.00
29909;BME280;36247;51.952;6.146;2023-04-02T23:13:56;102889.75;;;3.39;100.00
29909;BME280;36247;51.952;6.146;2023-04-02T23:16:26;102896.00;;;3.29;100.00
29909;BME280;36247;51.952;6.146;2023-04-02T23:18:57;102898.75;;;3.43;100.00
29909;BME280;36247;51.952;6.146;2023-04-02T23:21:26;102897.78;;;3.18;100.00
29909;BME280;36247;51.952;6.146;2023-04-02T23:23:55;102901.66;;;3.24;100.00
29909;BME280;36247;51.952;6.146;2023-04-02T23:26:29;102903.47;;;3.13;100.00